createdAt,value
2023-04-27T00:00:19.702Z,98318.34
2023-04-27T00:02:49.706Z,98317.72
2023-04-27T00:05:18.758Z,98314.22
2023-04-27T00:07:48.872Z,98312.09
2023-04-27T00:10:21.463Z,98313.56
2023-04-27T00:12:56.511Z,98319.63
2023-04-27T00:15:28.964Z,98305.22
2023-04-27T00:17:57.818Z,98298.06
2023-04-27T00:20:26.710Z,98303.81
2023-04-27T00:22:58.864Z,98306.50
2023-04-27T00:25:27.002Z,98304.28
2023-04-27T00:27:57.333Z,98302.69
2023-04-27T00:30:27.065Z,98291.53
2023-04-27T00:32:57.161Z,98296.31
2023-04-27T00:35:25.723Z,98289.28
2023-04-27T00:37:58.000Z,98294.72
2023-04-27T00:40:25.739Z,98301.13
2023-04-27T00:42:53.661Z,98291.06
2023-04-27T00:45:27.848Z,98290.56
2023-04-27T00:47:57.576Z,98293.47
2023-04-27T00:50:31.403Z,98298.38
2023-04-27T00:52:59.850Z,98294.09
2023-04-27T00:55:28.291Z,98295.69
2023-04-27T00:57:56.521Z,98295.69
2023-04-27T01:00:27.996Z,98293.13
2023-04-27T01:02:59.066Z,98281.13
2023-04-27T01:05:28.887Z,98290.25
2023-04-27T01:07:58.049Z,98282.88
2023-04-27T01:10:26.955Z,98284.47
2023-04-27T01:12:57.907Z,98291.50
2023-04-27T01:15:29.293Z,98293.03
2023-04-27T01:18:02.345Z,98283.34
2023-04-27T01:20:32.945Z,98287.28
2023-04-27T01:23:03.775Z,98284.44
2023-04-27T01:25:35.843Z,98285.59
2023-04-27T01:28:04.304Z,98292.59
2023-04-27T01:30:32.050Z,98288.47
2023-04-27T01:33:01.938Z,98292.28
2023-04-27T01:35:32.067Z,98293.88
2023-04-27T01:38:01.824Z,98296.78
2023-04-27T01:40:29.679Z,98291.97
2023-04-27T01:42:58.785Z,98296.59
2023-04-27T01:45:27.086Z,98294.50
2023-04-27T01:47:56.931Z,98292.59
2023-04-27T01:50:25.344Z,98299.00
2023-04-27T01:52:53.992Z,98299.31
2023-04-27T01:55:22.327Z,98293.56
2023-04-27T01:57:51.110Z,98292.28
2023-04-27T02:00:21.402Z,98298.66
2023-04-27T02:02:55.952Z,98304.72
2023-04-27T02:05:24.065Z,98304.72
2023-04-27T02:07:52.297Z,98293.25
2023-04-27T02:10:23.850Z,98296.09
2023-04-27T02:12:55.136Z,98295.97
2023-04-27T02:15:27.138Z,98294.50
2023-04-27T02:17:55.089Z,98293.50
2023-04-27T02:20:26.714Z,98289.25
2023-04-27T02:22:56.545Z,98305.19
2023-04-27T02:25:28.896Z,98296.09
2023-04-27T02:27:57.142Z,98300.97
2023-04-27T02:30:28.253Z,98292.72
2023-04-27T02:33:05.814Z,98293.78
2023-04-27T02:35:33.814Z,98297.94
2023-04-27T02:38:01.866Z,98301.75
2023-04-27T02:40:30.158Z,98301.13
2023-04-27T02:43:08.676Z,98303.22
2023-04-27T02:45:41.990Z,98305.13
2023-04-27T02:48:10.128Z,98307.34
2023-04-27T02:50:43.024Z,98302.75
2023-04-27T02:53:13.939Z,98308.34
2023-04-27T02:55:48.612Z,98309.56
2023-04-27T02:58:20.176Z,98302.44
2023-04-27T03:00:57.397Z,98311.97
2023-04-27T03:03:27.331Z,98314.19
2023-04-27T03:06:01.169Z,98316.78
2023-04-27T03:08:29.235Z,98316.41
2023-04-27T03:11:02.007Z,98314.47
2023-04-27T03:13:31.493Z,98307.81
2023-04-27T03:16:01.532Z,98309.06
2023-04-27T03:18:30.761Z,98310.47
2023-04-27T03:21:08.268Z,98317.69
2023-04-27T03:23:36.230Z,98311.88
2023-04-27T03:26:07.816Z,98310.91
2023-04-27T03:28:37.402Z,98321.13
2023-04-27T03:31:09.733Z,98318.91
2023-04-27T03:33:44.261Z,98322.22
2023-04-27T03:36:12.715Z,98321.28
2023-04-27T03:38:41.101Z,98321.41
2023-04-27T03:41:10.936Z,98324.34
2023-04-27T03:43:38.967Z,98321.03
2023-04-27T03:46:14.140Z,98328.66
2023-04-27T03:48:48.136Z,98336.03
2023-04-27T03:51:18.853Z,98337.53
2023-04-27T03:53:46.757Z,98334.44
2023-04-27T03:56:14.739Z,98341.44
2023-04-27T03:58:44.863Z,98343.94
2023-04-27T04:01:18.170Z,98349.09
2023-04-27T04:03:48.757Z,98347.84
2023-04-27T04:06:25.882Z,98347.84
2023-04-27T04:09:00.229Z,98349.47
2023-04-27T04:11:31.027Z,98351.66
2023-04-27T04:13:58.931Z,98352.28
2023-04-27T04:16:28.658Z,98346.59
2023-04-27T04:19:00.618Z,98341.97
2023-04-27T04:21:30.184Z,98341.81
2023-04-27T04:23:59.537Z,98338.63
2023-04-27T04:26:27.794Z,98334.53
2023-04-27T04:28:58.108Z,98331.34
2023-04-27T04:31:27.913Z,98336.16
2023-04-27T04:34:04.304Z,98335.03
2023-04-27T04:36:34.587Z,98331.16
2023-04-27T04:39:03.514Z,98337.97
2023-04-27T04:41:33.465Z,98340.06
2023-04-27T04:44:03.002Z,98339.53
2023-04-27T04:46:31.897Z,98342.28
2023-04-27T04:49:05.125Z,98340.94
2023-04-27T04:51:34.618Z,98346.38
2023-04-27T04:54:03.187Z,98345.94
2023-04-27T04:56:34.492Z,98342.78
2023-04-27T04:59:07.697Z,98340.16
2023-04-27T05:01:48.528Z,98343.84
2023-04-27T05:04:19.202Z,98333.31
2023-04-27T05:06:52.070Z,98345.16
2023-04-27T05:09:22.965Z,98346.38
2023-04-27T05:11:54.728Z,98346.56
2023-04-27T05:14:25.390Z,98343.88
2023-04-27T05:16:54.183Z,98347.97
2023-04-27T05:19:27.785Z,98347.44
2023-04-27T05:22:10.911Z,98354.22
2023-04-27T05:24:42.453Z,98358.09
2023-04-27T05:27:12.898Z,98361.69
2023-04-27T05:29:51.966Z,98363.59
2023-04-27T05:32:20.753Z,98375.16
2023-04-27T05:34:55.681Z,98371.53
2023-04-27T05:37:37.710Z,98374.44
2023-04-27T05:40:10.709Z,98374.84
2023-04-27T05:42:49.219Z,98376.72
2023-04-27T05:45:27.030Z,98384.41
2023-04-27T05:48:02.586Z,98369.72
2023-04-27T05:50:34.746Z,98368.63
2023-04-27T05:53:08.369Z,98383.16
2023-04-27T05:55:40.545Z,98392.75
2023-04-27T05:58:09.630Z,98382.72
2023-04-27T06:00:38.702Z,98388.94
2023-04-27T06:03:06.795Z,98388.31
2023-04-27T06:05:36.444Z,98393.09
2023-04-27T06:08:04.566Z,98403.66
2023-04-27T06:10:34.465Z,98393.78
2023-04-27T06:13:03.874Z,98400.78
2023-04-27T06:15:31.811Z,98391.53
2023-04-27T06:17:59.628Z,98400.31
2023-04-27T06:20:27.468Z,98395.69
2023-04-27T06:22:57.829Z,98390.53
2023-04-27T06:25:27.441Z,98394.25
2023-04-27T06:27:55.442Z,98393.03
2023-04-27T06:30:23.655Z,98393.75
2023-04-27T06:32:51.522Z,98400.22
2023-04-27T06:35:19.848Z,98396.38
2023-04-27T06:37:47.952Z,98391.69
2023-04-27T06:40:17.074Z,98400.47
2023-04-27T06:42:44.722Z,98405.34
2023-04-27T06:45:12.959Z,98409.94
2023-04-27T06:47:40.712Z,98407.59
2023-04-27T06:50:09.047Z,98408.13
2023-04-27T06:52:37.020Z,98407.13
2023-04-27T06:55:05.161Z,98405.81
2023-04-27T06:57:34.338Z,98405.00
2023-04-27T07:00:02.072Z,98409.19
2023-04-27T07:02:29.780Z,98403.56
2023-04-27T07:04:57.504Z,98404.09
2023-04-27T07:07:25.374Z,98404.31
2023-04-27T07:09:53.052Z,98401.78
2023-04-27T07:12:20.967Z,98396.91
2023-04-27T07:14:51.254Z,98392.00
2023-04-27T07:17:19.173Z,98395.19
2023-04-27T07:19:46.797Z,98390.38
2023-04-27T07:22:16.000Z,98394.53
2023-04-27T07:24:43.998Z,98399.16
2023-04-27T07:27:11.699Z,98400.81
2023-04-27T07:29:39.457Z,98393.19
2023-04-27T07:32:09.618Z,98397.16
2023-04-27T07:34:51.940Z,98404.44
2023-04-27T07:37:20.981Z,98402.91
2023-04-27T07:39:50.156Z,98401.41
2023-04-27T07:42:18.471Z,98406.88
2023-04-27T07:44:46.366Z,98417.38
2023-04-27T07:47:15.837Z,98418.34
2023-04-27T07:49:45.542Z,98413.28
2023-04-27T07:52:13.618Z,98407.22
2023-04-27T07:54:41.837Z,98418.41
2023-04-27T07:57:11.643Z,98419.88
2023-04-27T07:59:40.260Z,98422.03
2023-04-27T08:02:19.229Z,98426.63
2023-04-27T08:04:49.815Z,98423.44
2023-04-27T08:07:18.096Z,98420.13
2023-04-27T08:09:46.468Z,98417.16
2023-04-27T08:12:14.205Z,98410.38
2023-04-27T08:14:42.076Z,98428.84
2023-04-27T08:17:09.829Z,98424.53
2023-04-27T08:19:37.503Z,98421.75
2023-04-27T08:22:06.695Z,98417.31
2023-04-27T08:24:34.715Z,98421.75
2023-04-27T08:27:03.437Z,98416.56
2023-04-27T08:29:31.355Z,98418.94
2023-04-27T08:32:00.888Z,98411.47
2023-04-27T08:34:28.780Z,98420.06
2023-04-27T08:36:56.845Z,98412.34
2023-04-27T08:39:26.219Z,98407.28
2023-04-27T08:41:54.245Z,98403.19
2023-04-27T08:44:21.958Z,98401.06
2023-04-27T08:46:50.796Z,98413.88
2023-04-27T08:49:18.879Z,98400.31
2023-04-27T08:51:46.860Z,98390.56
2023-04-27T08:54:14.544Z,98402.25
2023-04-27T08:56:43.625Z,98397.38
2023-04-27T08:59:16.550Z,98385.78
2023-04-27T09:01:45.944Z,98391.81
2023-04-27T09:04:13.779Z,98394.25
2023-04-27T09:06:42.178Z,98394.03
2023-04-27T09:09:11.469Z,98392.63
2023-04-27T09:11:40.452Z,98391.75
2023-04-27T09:14:19.588Z,98387.63
2023-04-27T09:16:47.831Z,98388.78
2023-04-27T09:19:25.369Z,98384.94
2023-04-27T09:22:03.764Z,98382.44
2023-04-27T09:24:31.595Z,98380.63
2023-04-27T09:27:00.809Z,98369.22
2023-04-27T09:30:08.692Z,98364.19
2023-04-27T09:32:36.519Z,98368.50
2023-04-27T09:35:05.635Z,98363.84
2023-04-27T09:37:33.356Z,98359.16
2023-04-27T09:40:04.361Z,98357.72
2023-04-27T09:42:32.934Z,98353.66
2023-04-27T09:45:02.691Z,98343.06
2023-04-27T09:47:31.638Z,98345.59
2023-04-27T09:50:01.337Z,98356.53
2023-04-27T09:52:29.041Z,98342.72
2023-04-27T09:55:00.369Z,98344.38
2023-04-27T09:57:37.133Z,98336.78
2023-04-27T10:00:20.950Z,98342.88
2023-04-27T10:03:04.264Z,98336.44
2023-04-27T10:05:52.839Z,98332.06
2023-04-27T10:08:22.625Z,98339.84
2023-04-27T10:10:51.905Z,98333.16
2023-04-27T10:13:24.580Z,98341.34
2023-04-27T10:15:54.045Z,98341.75
2023-04-27T10:18:30.714Z,98345.00
2023-04-27T10:21:10.384Z,98344.59
2023-04-27T10:23:48.453Z,98346.16
2023-04-27T10:26:23.957Z,98337.00
2023-04-27T10:29:07.215Z,98337.06
2023-04-27T10:31:36.808Z,98343.16
2023-04-27T10:34:09.848Z,98343.69
2023-04-27T10:36:38.372Z,98334.34
2023-04-27T10:39:17.019Z,98325.63
2023-04-27T10:41:52.554Z,98324.56
2023-04-27T10:44:21.259Z,98321.78
2023-04-27T10:46:54.449Z,98313.28
2023-04-27T10:49:22.659Z,98318.66
2023-04-27T10:51:52.169Z,98325.69
2023-04-27T10:54:20.179Z,98326.47
2023-04-27T10:56:48.327Z,98317.88
2023-04-27T10:59:16.053Z,98323.28
2023-04-27T11:01:44.176Z,98315.16
2023-04-27T11:04:13.507Z,98312.78
2023-04-27T11:06:46.780Z,98323.72
2023-04-27T11:09:16.220Z,98317.63
2023-04-27T11:11:47.763Z,98326.06
2023-04-27T11:14:21.025Z,98321.75
2023-04-27T11:16:48.919Z,98316.56
2023-04-27T11:19:18.050Z,98310.31
2023-04-27T11:21:47.067Z,98311.72
2023-04-27T11:24:15.598Z,98314.16
2023-04-27T11:26:43.569Z,98308.88
2023-04-27T11:29:13.669Z,98312.22
2023-04-27T11:31:43.734Z,98310.94
2023-04-27T11:34:19.481Z,98311.16
2023-04-27T11:37:07.242Z,98316.25
2023-04-27T11:39:46.685Z,98308.75
2023-04-27T11:42:22.708Z,98305.63
2023-04-27T11:44:55.184Z,98307.91
2023-04-27T11:47:23.562Z,98312.47
2023-04-27T11:49:53.365Z,98320.09
2023-04-27T11:52:21.375Z,98315.06
2023-04-27T11:54:50.338Z,98313.44
2023-04-27T11:57:18.098Z,98317.34
2023-04-27T11:59:46.348Z,98312.03
2023-04-27T12:02:14.124Z,98309.81
2023-04-27T12:04:42.751Z,98311.91
2023-04-27T12:07:12.276Z,98308.88
2023-04-27T12:09:40.038Z,98309.31
2023-04-27T12:12:08.631Z,98306.91
2023-04-27T12:14:36.447Z,98304.78
2023-04-27T12:17:04.230Z,98296.09
2023-04-27T12:19:32.001Z,98300.03
2023-04-27T12:21:59.929Z,98293.88
2023-04-27T12:24:29.386Z,98293.53
2023-04-27T12:26:58.024Z,98287.41
2023-04-27T12:29:26.042Z,98280.69
2023-04-27T12:31:54.621Z,98290.56
2023-04-27T12:34:22.602Z,98283.47
2023-04-27T12:36:50.583Z,98285.88
2023-04-27T12:39:19.710Z,98286.28
2023-04-27T12:41:49.741Z,98278.78
2023-04-27T12:44:18.966Z,98287.47
2023-04-27T12:46:48.233Z,98282.72
2023-04-27T12:49:16.521Z,98289.03
2023-04-27T12:51:45.719Z,98282.72
2023-04-27T12:54:13.687Z,98282.72
2023-04-27T12:56:41.885Z,98284.28
2023-04-27T12:59:11.080Z,98282.34
2023-04-27T13:01:38.911Z,98282.72
2023-04-27T13:04:09.425Z,98281.09
2023-04-27T13:06:38.171Z,98284.88
2023-04-27T13:09:06.749Z,98279.16
2023-04-27T13:11:34.449Z,98285.03
2023-04-27T13:14:02.145Z,98284.13
2023-04-27T13:16:31.227Z,98270.84
2023-04-27T13:18:58.985Z,98278.75
2023-04-27T13:21:26.696Z,98276.38
2023-04-27T13:23:54.849Z,98282.69
2023-04-27T13:26:22.529Z,98277.19
2023-04-27T13:28:50.562Z,98274.53
2023-04-27T13:31:18.346Z,98263.53
2023-04-27T13:33:47.824Z,98256.38
2023-04-27T13:36:15.462Z,98254.06
2023-04-27T13:38:43.168Z,98251.09
2023-04-27T13:41:11.177Z,98248.75
2023-04-27T13:43:38.865Z,98246.41
2023-04-27T13:46:07.513Z,98240.06
2023-04-27T13:48:35.149Z,98244.84
2023-04-27T13:51:04.185Z,98237.72
2023-04-27T13:53:31.964Z,98239.25
2023-04-27T13:55:59.733Z,98235.28
2023-04-27T13:58:29.154Z,98244.31
2023-04-27T14:00:57.297Z,98242.25
2023-04-27T14:03:25.241Z,98239.81
2023-04-27T14:05:53.118Z,98231.91
2023-04-27T14:08:22.667Z,98231.84
2023-04-27T14:10:50.724Z,98237.34
2023-04-27T14:13:19.683Z,98227.22
2023-04-27T14:15:48.550Z,98219.47
2023-04-27T14:18:16.563Z,98230.47
2023-04-27T14:20:46.498Z,98225.25
2023-04-27T14:23:14.258Z,98228.53
2023-04-27T14:25:43.447Z,98229.44
2023-04-27T14:28:12.383Z,98222.41
2023-04-27T14:30:40.160Z,98221.53
2023-04-27T14:33:07.931Z,98219.91
2023-04-27T14:35:37.045Z,98221.56
2023-04-27T14:38:05.424Z,98217.63
2023-04-27T14:40:33.513Z,98225.63
2023-04-27T14:43:02.759Z,98218.13
2023-04-27T14:45:39.672Z,98211.88
2023-04-27T14:48:11.673Z,98219.88
2023-04-27T14:50:40.225Z,98224.25
2023-04-27T14:53:07.969Z,98228.59
2023-04-27T14:55:36.532Z,98229.50
2023-04-27T14:58:06.005Z,98229.56
2023-04-27T15:00:33.785Z,98230.34
2023-04-27T15:03:01.622Z,98229.56
2023-04-27T15:05:29.439Z,98235.31
2023-04-27T15:07:57.152Z,98230.97
2023-04-27T15:10:24.810Z,98224.69
2023-04-27T15:12:52.904Z,98227.75
2023-04-27T15:15:21.969Z,98226.06
2023-04-27T15:17:49.772Z,98219.69
2023-04-27T15:20:20.157Z,98222.81
2023-04-27T15:22:48.266Z,98221.38
2023-04-27T15:25:16.106Z,98229.31
2023-04-27T15:27:44.205Z,98214.50
2023-04-27T15:30:12.751Z,98207.78
2023-04-27T15:32:41.866Z,98217.03
2023-04-27T15:35:10.483Z,98221.44
2023-04-27T15:37:38.295Z,98219.81
2023-04-27T15:40:10.487Z,98207.19
2023-04-27T15:42:38.402Z,98199.38
2023-04-27T15:45:09.749Z,98202.44
2023-04-27T15:47:37.846Z,98204.69
2023-04-27T15:50:08.676Z,98209.88
2023-04-27T15:52:36.441Z,98194.50
2023-04-27T15:55:05.451Z,98186.69
2023-04-27T15:57:36.566Z,98192.94
2023-04-27T16:00:10.235Z,98192.13
2023-04-27T16:02:38.233Z,98183.50
2023-04-27T16:05:08.851Z,98187.34
2023-04-27T16:07:38.116Z,98189.59
2023-04-27T16:10:08.015Z,98192.81
2023-04-27T16:12:36.705Z,98197.63
2023-04-27T16:15:04.897Z,98191.72
2023-04-27T16:17:37.792Z,98188.47
2023-04-27T16:20:09.539Z,98185.59
2023-04-27T16:22:38.623Z,98181.91
2023-04-27T16:25:10.869Z,98185.59
2023-04-27T16:27:39.561Z,98181.97
2023-04-27T16:30:08.767Z,98171.81
2023-04-27T16:32:39.346Z,98167.88
2023-04-27T16:35:12.797Z,98172.34
2023-04-27T16:37:42.280Z,98173.22
2023-04-27T16:40:34.048Z,98180.25
2023-04-27T16:43:01.958Z,98178.00
2023-04-27T16:45:29.738Z,98174.03
2023-04-27T16:47:59.990Z,98179.16
2023-04-27T16:50:34.101Z,98172.06
2023-04-27T16:53:30.901Z,98183.38
2023-04-27T16:56:00.411Z,98178.59
2023-04-27T16:58:29.256Z,98178.28
2023-04-27T17:00:58.352Z,98183.03
2023-04-27T17:03:34.571Z,98181.84
2023-04-27T17:06:05.024Z,98178.28
2023-04-27T17:08:33.053Z,98175.53
2023-04-27T17:11:00.885Z,98171.66
2023-04-27T17:13:30.956Z,98172.28
2023-04-27T17:15:59.032Z,98167.47
2023-04-27T17:18:33.014Z,98168.34
2023-04-27T17:21:02.550Z,98172.66
2023-04-27T17:23:33.733Z,98171.41
2023-04-27T17:26:02.227Z,98170.19
2023-04-27T17:28:30.322Z,98173.81
2023-04-27T17:30:58.393Z,98168.31
2023-04-27T17:33:26.263Z,98172.97
2023-04-27T17:35:54.435Z,98166.63
2023-04-27T17:38:23.330Z,98169.00
2023-04-27T17:40:53.869Z,98169.75
2023-04-27T17:43:23.124Z,98163.38
2023-04-27T17:45:51.680Z,98167.22
2023-04-27T17:48:19.794Z,98160.09
2023-04-27T17:50:47.971Z,98167.91
2023-04-27T17:53:16.351Z,98157.63
2023-04-27T17:55:45.489Z,98156.44
2023-04-27T17:58:15.595Z,98151.25
2023-04-27T18:00:45.011Z,98157.50
2023-04-27T18:03:13.652Z,98151.94
2023-04-27T18:05:42.549Z,98151.78
2023-04-27T18:08:12.356Z,98152.91
2023-04-27T18:10:40.388Z,98151.63
2023-04-27T18:13:08.640Z,98150.75
2023-04-27T18:15:45.924Z,98163.16
2023-04-27T18:18:16.893Z,98163.06
2023-04-27T18:20:47.700Z,98161.38
2023-04-27T18:23:16.194Z,98161.25
2023-04-27T18:25:44.358Z,98153.22
2023-04-27T18:28:15.240Z,98168.84
2023-04-27T18:30:44.383Z,98166.44
2023-04-27T18:33:13.382Z,98161.75
2023-04-27T18:35:41.422Z,98168.03
2023-04-27T18:38:09.278Z,98167.47
2023-04-27T18:40:38.060Z,98181.22
2023-04-27T18:43:06.274Z,98183.56
2023-04-27T18:45:34.491Z,98186.34
2023-04-27T18:48:03.996Z,98186.94
2023-04-27T18:50:32.974Z,98196.63
2023-04-27T18:53:03.239Z,98194.16
2023-04-27T18:55:31.506Z,98188.63
2023-04-27T18:57:59.548Z,98197.16
2023-04-27T19:00:28.643Z,98190.09
2023-04-27T19:02:56.643Z,98191.56
2023-04-27T19:05:26.614Z,98193.81
2023-04-27T19:07:54.645Z,98188.75
2023-04-27T19:10:22.433Z,98189.00
2023-04-27T19:12:50.521Z,98190.03
2023-04-27T19:15:18.349Z,98184.19
2023-04-27T19:17:48.745Z,98181.66
2023-04-27T19:20:20.569Z,98182.44
2023-04-27T19:22:49.762Z,98181.56
2023-04-27T19:25:18.085Z,98178.41
2023-04-27T19:27:48.279Z,98178.25
2023-04-27T19:30:17.305Z,98180.41
2023-04-27T19:32:46.265Z,98178.84
2023-04-27T19:35:16.686Z,98175.66
2023-04-27T19:37:46.362Z,98179.09
2023-04-27T19:40:18.769Z,98182.47
2023-04-27T19:42:47.034Z,98184.94
2023-04-27T19:45:17.974Z,98180.88
2023-04-27T19:47:49.504Z,98180.00
2023-04-27T19:50:21.088Z,98177.44
2023-04-27T19:52:50.794Z,98179.03
2023-04-27T19:55:20.519Z,98185.94
2023-04-27T19:57:49.183Z,98188.25
2023-04-27T20:00:21.556Z,98187.00
2023-04-27T20:02:54.403Z,98191.28
2023-04-27T20:05:22.955Z,98186.44
2023-04-27T20:07:51.640Z,98192.72
2023-04-27T20:10:22.682Z,98181.59
2023-04-27T20:12:56.483Z,98180.75
2023-04-27T20:15:25.721Z,98186.06
2023-04-27T20:17:55.185Z,98184.50
2023-04-27T20:20:23.856Z,98182.03
2023-04-27T20:22:58.132Z,98178.84
2023-04-27T20:25:28.466Z,98179.72
2023-04-27T20:28:02.158Z,98176.25
2023-04-27T20:30:31.983Z,98169.88
2023-04-27T20:33:03.884Z,98171.03
2023-04-27T20:35:34.778Z,98166.41
2023-04-27T20:38:06.128Z,98163.97
2023-04-27T20:40:39.218Z,98163.78
2023-04-27T20:43:13.361Z,98173.00
2023-04-27T20:45:42.858Z,98163.72
2023-04-27T20:48:19.202Z,98167.25
2023-04-27T20:50:55.442Z,98166.81
2023-04-27T20:53:26.894Z,98174.28
2023-04-27T20:55:59.134Z,98171.22
2023-04-27T20:58:28.484Z,98170.31
2023-04-27T21:00:56.329Z,98168.41
2023-04-27T21:03:30.350Z,98174.56
2023-04-27T21:05:59.017Z,98175.53
2023-04-27T21:08:30.746Z,98172.38
2023-04-27T21:11:02.193Z,98177.41
2023-04-27T21:13:33.179Z,98165.91
2023-04-27T21:16:05.596Z,98167.78
2023-04-27T21:18:34.590Z,98173.50
2023-04-27T21:21:02.926Z,98167.00
2023-04-27T21:23:35.734Z,98166.81
2023-04-27T21:26:17.213Z,98168.72
2023-04-27T21:28:46.496Z,98164.94
2023-04-27T21:31:14.848Z,98167.75
2023-04-27T21:33:45.241Z,98159.75
2023-04-27T21:36:13.843Z,98154.28
2023-04-27T21:38:44.022Z,98157.97
2023-04-27T21:41:13.633Z,98157.97
2023-04-27T21:43:44.862Z,98163.44
2023-04-27T21:46:12.838Z,98157.09
2023-04-27T21:48:47.528Z,98160.97
2023-04-27T21:51:18.441Z,98152.66
2023-04-27T21:53:46.999Z,98155.47
2023-04-27T21:56:17.178Z,98155.47
2023-04-27T21:58:47.297Z,98152.66
2023-04-27T22:01:15.152Z,98153.16
2023-04-27T22:03:43.701Z,98146.84
2023-04-27T22:06:14.566Z,98148.53
2023-04-27T22:08:42.808Z,98141.78
2023-04-27T22:11:12.545Z,98144.63
2023-04-27T22:13:44.848Z,98139.41
2023-04-27T22:16:14.643Z,98146.00
2023-04-27T22:18:42.890Z,98138.47
2023-04-27T22:21:15.349Z,98142.81
2023-04-27T22:23:43.747Z,98139.97
2023-04-27T22:26:11.471Z,98135.59
2023-04-27T22:28:39.418Z,98139.56
2023-04-27T22:31:08.834Z,98138.94
2023-04-27T22:33:37.673Z,98135.50
2023-04-27T22:36:05.884Z,98130.06
2023-04-27T22:38:33.652Z,98125.28
2023-04-27T22:41:03.436Z,98134.28
2023-04-27T22:43:31.304Z,98135.31
2023-04-27T22:45:59.234Z,98130.53
2023-04-27T22:48:28.347Z,98125.88
2023-04-27T22:50:56.083Z,98128.03
2023-04-27T22:53:23.763Z,98129.84
2023-04-27T22:55:51.464Z,98128.03
2023-04-27T22:58:19.334Z,98121.50
2023-04-27T23:00:47.108Z,98126.03
2023-04-27T23:03:14.920Z,98124.69
2023-04-27T23:05:44.089Z,98130.13
2023-04-27T23:08:13.232Z,98122.16
2023-04-27T23:10:40.962Z,98121.50
2023-04-27T23:13:11.273Z,98131.03
2023-04-27T23:15:39.547Z,98126.06
2023-04-27T23:18:07.350Z,98126.25
2023-04-27T23:20:35.287Z,98121.72
2023-04-27T23:23:04.412Z,98129.19
2023-04-27T23:25:32.937Z,98121.72
2023-04-27T23:28:01.005Z,98127.16
2023-04-27T23:30:29.749Z,98122.88
2023-04-27T23:32:57.607Z,98124.00
2023-04-27T23:35:27.791Z,98115.47
2023-04-27T23:37:55.451Z,98119.44
2023-04-27T23:40:24.687Z,98113.75
2023-04-27T23:42:52.546Z,98117.41
2023-04-27T23:45:20.811Z,98114.25
2023-04-27T23:47:48.555Z,98113.47
2023-04-27T23:50:16.726Z,98113.75
2023-04-27T23:52:45.381Z,98118.13
2023-04-27T23:55:13.228Z,98120.84
2023-04-27T23:57:42.294Z,98111.97
